createdAt,value
2019-02-28T00:01:46.287Z,97590.88
2019-02-28T00:04:16.094Z,97585.05
2019-02-28T00:06:47.016Z,97579.66
2019-02-28T00:09:18.623Z,97580.56
2019-02-28T00:11:59.325Z,97578.89
2019-02-28T00:14:30.362Z,97578.98
2019-02-28T00:17:02.773Z,97582.48
2019-02-28T00:19:34.198Z,97584.28
2019-02-28T00:22:05.116Z,97584.83
2019-02-28T00:24:36.483Z,97584.91
2019-02-28T00:27:07.147Z,97578.09
2019-02-28T00:29:38.128Z,97576.03
2019-02-28T00:32:09.945Z,97577.52
2019-02-28T00:34:41.581Z,97573.55
2019-02-28T00:37:16.649Z,97571.03
2019-02-28T00:39:50.213Z,97574.13
2019-02-28T00:42:21.254Z,97581.45
2019-02-28T00:44:51.906Z,97579.77
2019-02-28T00:47:23.606Z,97582.38
2019-02-28T00:49:55.596Z,97580.05
2019-02-28T00:52:28.156Z,97578.05
2019-02-28T00:55:00.830Z,97574.47
2019-02-28T00:57:31.888Z,97572.45
2019-02-28T01:00:05.490Z,97572.25
2019-02-28T01:02:53.523Z,97571.02
2019-02-28T01:05:23.724Z,97575.20
2019-02-28T01:07:55.221Z,97567.05
2019-02-28T01:10:26.365Z,97567.92
2019-02-28T01:12:57.808Z,97564.83
2019-02-28T01:15:29.262Z,97561.27
2019-02-28T01:18:01.572Z,97551.59
2019-02-28T01:20:33.264Z,97555.81
2019-02-28T01:23:04.263Z,97557.93
2019-02-28T01:25:37.188Z,97552.53
2019-02-28T01:28:13.025Z,97549.66
2019-02-28T01:30:44.415Z,97546.78
2019-02-28T01:33:15.904Z,97545.91
2019-02-28T01:35:47.303Z,97538.41
2019-02-28T01:38:18.988Z,97543.20
2019-02-28T01:40:58.754Z,97541.77
2019-02-28T01:43:29.777Z,97534.27
2019-02-28T01:46:01.515Z,97538.84
2019-02-28T01:48:32.843Z,97535.35
2019-02-28T01:51:04.115Z,97524.07
2019-02-28T01:53:36.515Z,97520.75
2019-02-28T01:56:07.864Z,97514.30
2019-02-28T01:58:38.941Z,97514.66
2019-02-28T02:01:09.900Z,97511.30
2019-02-28T03:01:56.122Z,97471.89
2019-02-28T03:04:26.443Z,97474.81
2019-02-28T03:07:02.092Z,97468.34
2019-02-28T03:09:33.815Z,97464.69
2019-02-28T03:12:06.083Z,97465.73
2019-02-28T03:14:37.385Z,97468.18
2019-02-28T03:17:11.558Z,97470.73
2019-02-28T03:19:42.371Z,97467.03
2019-02-28T03:22:14.112Z,97471.44
2019-02-28T03:24:50.684Z,97467.29
2019-02-28T03:27:20.004Z,97465.22
2019-02-28T03:29:52.053Z,97461.71
2019-02-28T03:32:23.320Z,97463.17
2019-02-28T03:34:58.947Z,97463.09
2019-02-28T03:37:32.852Z,97465.88
2019-02-28T03:40:04.485Z,97463.48
2019-02-28T03:42:34.873Z,97458.23
2019-02-28T03:45:06.088Z,97453.72
2019-02-28T03:47:37.739Z,97448.45
2019-02-28T03:50:08.540Z,97448.04
2019-02-28T03:52:43.838Z,97443.84
2019-02-28T03:55:12.961Z,97446.25
2019-02-28T03:57:44.201Z,97443.41
2019-02-28T04:00:17.435Z,97440.85
2019-02-28T04:02:58.806Z,97434.16
2019-02-28T04:05:45.671Z,97439.19
2019-02-28T04:08:17.935Z,97436.66
2019-02-28T04:11:23.220Z,97429.97
2019-02-28T04:13:56.065Z,97433.53
2019-02-28T04:16:27.592Z,97433.54
2019-02-28T04:18:58.557Z,97443.24
2019-02-28T04:21:35.069Z,97442.51
2019-02-28T04:24:12.689Z,97448.56
2019-02-28T04:26:42.650Z,97446.13
2019-02-28T04:29:13.992Z,97448.53
2019-02-28T04:31:45.377Z,97445.17
2019-02-28T04:34:17.109Z,97442.95
2019-02-28T04:36:48.447Z,97439.22
2019-02-28T04:39:22.819Z,97433.55
2019-02-28T04:41:53.673Z,97438.84
2019-02-28T04:44:35.947Z,97433.93
2019-02-28T04:47:07.657Z,97430.78
2019-02-28T04:49:38.379Z,97435.04
2019-02-28T04:52:11.813Z,97430.64
2019-02-28T04:54:42.569Z,97436.97
2019-02-28T04:57:17.406Z,97443.42
2019-02-28T04:59:49.024Z,97445.58
2019-02-28T05:02:20.774Z,97449.81
2019-02-28T05:04:52.303Z,97449.00
2019-02-28T05:07:26.307Z,97452.52
2019-02-28T05:09:56.717Z,97453.81
2019-02-28T05:12:27.967Z,97451.20
2019-02-28T05:15:02.167Z,97447.59
2019-02-28T05:17:32.565Z,97441.13
2019-02-28T05:20:03.292Z,97441.83
2019-02-28T05:22:35.246Z,97442.01
2019-02-28T05:25:09.561Z,97451.77
2019-02-28T05:27:41.562Z,97448.97
2019-02-28T05:30:18.126Z,97454.42
2019-02-28T05:32:47.125Z,97459.06
2019-02-28T05:35:18.124Z,97452.34
2019-02-28T05:37:50.902Z,97448.20
2019-02-28T05:40:22.339Z,97443.08
2019-02-28T05:42:54.643Z,97440.66
2019-02-28T05:45:26.417Z,97442.36
2019-02-28T05:47:57.488Z,97440.25
2019-02-28T05:50:28.474Z,97440.28
2019-02-28T05:52:59.877Z,97443.16
2019-02-28T05:55:32.493Z,97445.98
2019-02-28T05:58:03.624Z,97452.81
2019-02-28T06:00:37.045Z,97453.41
2019-02-28T06:03:08.207Z,97449.42
2019-02-28T06:05:39.110Z,97451.84
2019-02-28T06:08:10.721Z,97456.27
2019-02-28T06:10:42.393Z,97456.80
2019-02-28T06:13:15.300Z,97461.43
2019-02-28T06:15:47.352Z,97460.11
2019-02-28T06:18:18.391Z,97460.08
2019-02-28T06:20:51.429Z,97465.08
2019-02-28T06:23:22.318Z,97463.63
2019-02-28T06:25:55.770Z,97460.86
2019-02-28T06:28:27.707Z,97464.92
2019-02-28T06:31:00.883Z,97464.34
2019-02-28T06:33:33.755Z,97462.36
2019-02-28T06:36:05.420Z,97462.72
2019-02-28T06:38:37.023Z,97466.45
2019-02-28T06:41:08.737Z,97468.27
2019-02-28T06:43:39.692Z,97467.31
2019-02-28T06:46:11.436Z,97477.63
2019-02-28T06:48:42.836Z,97476.98
2019-02-28T06:51:16.730Z,97490.06
2019-02-28T06:53:47.192Z,97490.52
2019-02-28T06:56:21.929Z,97488.55
2019-02-28T06:58:52.183Z,97479.23
2019-02-28T07:01:23.894Z,97480.25
2019-02-28T07:03:55.093Z,97477.41
2019-02-28T07:06:26.683Z,97480.29
2019-02-28T07:09:02.023Z,97477.74
2019-02-28T07:11:32.827Z,97475.39
2019-02-28T07:14:03.963Z,97471.19
2019-02-28T07:16:37.637Z,97473.76
2019-02-28T07:19:08.904Z,97467.85
2019-02-28T07:21:43.926Z,97470.23
2019-02-28T07:24:13.073Z,97466.44
2019-02-28T07:26:44.566Z,97467.09
2019-02-28T07:29:15.687Z,97474.81
2019-02-28T07:31:46.743Z,97474.02
2019-02-28T07:34:21.945Z,97469.27
2019-02-28T07:36:51.578Z,97471.36
2019-02-28T07:39:22.210Z,97472.59
2019-02-28T07:41:53.258Z,97468.58
2019-02-28T07:44:25.294Z,97470.31
2019-02-28T07:46:56.824Z,97464.94
2019-02-28T07:49:27.491Z,97461.47
2019-02-28T07:51:58.850Z,97460.14
2019-02-28T07:54:31.343Z,97456.06
2019-02-28T07:57:03.282Z,97463.27
2019-02-28T07:59:40.663Z,97459.97
2019-02-28T08:02:07.748Z,97456.48
2019-02-28T08:04:39.431Z,97451.05
2019-02-28T08:07:11.403Z,97456.08
2019-02-28T08:09:43.496Z,97454.06
2019-02-28T08:12:14.568Z,97462.66
2019-02-28T08:14:47.075Z,97466.12
2019-02-28T08:17:18.375Z,97473.88
2019-02-28T08:19:50.224Z,97477.80
2019-02-28T08:22:24.220Z,97482.59
2019-02-28T08:24:53.464Z,97482.14
2019-02-28T08:27:25.447Z,97482.58
2019-02-28T08:29:57.090Z,97479.59
2019-02-28T08:32:28.089Z,97485.00
2019-02-28T08:34:59.759Z,97476.16
2019-02-28T08:37:31.216Z,97480.48
2019-02-28T08:40:02.892Z,97479.31
2019-02-28T08:42:38.690Z,97476.40
2019-02-28T08:45:10.705Z,97461.91
2019-02-28T08:47:41.434Z,97462.36
2019-02-28T08:50:19.166Z,97461.49
2019-02-28T08:52:52.238Z,97469.07
2019-02-28T08:55:28.905Z,97468.46
2019-02-28T08:58:03.935Z,97461.05
2019-02-28T09:00:32.785Z,97464.30
2019-02-28T09:03:02.592Z,97462.77
2019-02-28T09:05:33.959Z,97457.13
2019-02-28T09:08:05.003Z,97453.98
2019-02-28T09:10:37.466Z,97450.30
2019-02-28T09:13:09.030Z,97449.20
2019-02-28T09:15:40.729Z,97442.96
2019-02-28T09:18:12.426Z,97447.06
2019-02-28T09:20:45.149Z,97459.48
2019-02-28T09:23:16.265Z,97457.05
2019-02-28T09:25:46.898Z,97452.44
2019-02-28T09:28:20.874Z,97448.52
2019-02-28T09:30:53.567Z,97444.42
2019-02-28T09:33:24.571Z,97441.98
2019-02-28T09:35:55.264Z,97436.48
2019-02-28T09:38:26.313Z,97446.42
2019-02-28T09:40:57.652Z,97444.81
2019-02-28T09:43:29.327Z,97435.63
2019-02-28T09:45:59.908Z,97432.29
2019-02-28T09:48:33.944Z,97447.66
2019-02-28T09:51:03.757Z,97455.36
2019-02-28T09:53:34.720Z,97449.39
2019-02-28T09:56:09.342Z,97445.73
2019-02-28T09:58:39.484Z,97432.16
2019-02-28T10:01:10.803Z,97433.63
2019-02-28T10:03:41.488Z,97434.23
2019-02-28T10:06:16.463Z,97436.69
2019-02-28T10:08:48.015Z,97429.83
2019-02-28T10:11:21.723Z,97438.46
2019-02-28T10:13:53.095Z,97439.73
2019-02-28T10:16:25.549Z,97433.54
2019-02-28T10:18:56.161Z,97433.97
2019-02-28T10:21:27.184Z,97437.96
2019-02-28T10:23:59.000Z,97430.80
2019-02-28T10:26:29.907Z,97435.84
2019-02-28T10:29:01.286Z,97429.64
2019-02-28T10:31:38.636Z,97424.61
2019-02-28T10:34:10.220Z,97426.50
2019-02-28T10:36:41.211Z,97428.17
2019-02-28T10:39:12.660Z,97426.98
2019-02-28T10:41:44.487Z,97422.33
2019-02-28T10:44:16.155Z,97410.64
2019-02-28T10:46:47.165Z,97419.05
2019-02-28T10:49:21.129Z,97413.30
2019-02-28T10:51:51.766Z,97416.38
2019-02-28T10:54:22.859Z,97409.41
2019-02-28T10:56:54.201Z,97412.19
2019-02-28T10:59:25.903Z,97406.32
2019-02-28T11:01:56.952Z,97408.86
2019-02-28T11:04:30.179Z,97404.72
2019-02-28T11:07:02.254Z,97398.70
2019-02-28T11:09:34.786Z,97404.36
2019-02-28T11:12:05.833Z,97397.89
2019-02-28T11:14:38.805Z,97394.96
2019-02-28T11:17:13.639Z,97402.03
2019-02-28T11:19:43.144Z,97393.86
2019-02-28T11:22:14.945Z,97390.00
2019-02-28T11:24:48.197Z,97394.47
2019-02-28T11:27:22.877Z,97386.74
2019-02-28T11:29:52.206Z,97388.89
2019-02-28T11:32:22.761Z,97384.31
2019-02-28T11:34:54.836Z,97366.55
2019-02-28T11:37:26.335Z,97376.16
2019-02-28T11:39:57.687Z,97360.95
2019-02-28T11:42:31.241Z,97359.46
2019-02-28T11:45:03.286Z,97353.55
2019-02-28T11:47:34.315Z,97361.22
2019-02-28T11:50:07.665Z,97353.23
2019-02-28T11:52:39.078Z,97358.05
2019-02-28T11:55:11.326Z,97348.42
2019-02-28T11:57:42.382Z,97345.77
2019-02-28T12:00:22.367Z,97343.03
2019-02-28T12:02:53.682Z,97317.30
2019-02-28T12:05:25.857Z,97336.27
2019-02-28T12:07:57.286Z,97335.34
2019-02-28T12:10:28.416Z,97323.38
2019-02-28T12:12:59.665Z,97308.26
2019-02-28T12:15:31.057Z,97307.44
2019-02-28T12:18:04.748Z,97302.87
2019-02-28T12:20:36.094Z,97296.03
2019-02-28T12:23:07.957Z,97301.95
2019-02-28T12:25:39.492Z,97299.25
2019-02-28T12:28:12.095Z,97285.24
2019-02-28T12:30:43.626Z,97283.85
2019-02-28T12:33:15.431Z,97276.53
2019-02-28T12:35:47.442Z,97278.66
2019-02-28T12:38:18.933Z,97281.42
2019-02-28T12:40:50.716Z,97269.84
2019-02-28T12:43:21.597Z,97276.53
2019-02-28T12:45:53.619Z,97273.27
2019-02-28T12:48:26.935Z,97268.34
2019-02-28T12:50:58.071Z,97269.58
2019-02-28T12:53:28.834Z,97257.81
2019-02-28T12:56:00.131Z,97257.55
2019-02-28T12:58:38.677Z,97261.17
2019-02-28T13:01:04.254Z,97257.89
2019-02-28T13:03:35.258Z,97256.16
2019-02-28T13:06:07.220Z,97254.75
2019-02-28T13:08:38.603Z,97260.86
2019-02-28T13:11:11.550Z,97256.20
2019-02-28T13:13:42.942Z,97253.17
2019-02-28T13:16:17.434Z,97234.96
2019-02-28T13:18:48.121Z,97244.28
2019-02-28T13:21:31.112Z,97243.88
2019-02-28T13:24:06.089Z,97237.70
2019-02-28T13:26:35.121Z,97232.60
2019-02-28T13:29:06.440Z,97238.97
2019-02-28T13:31:37.958Z,97225.53
2019-02-28T13:34:08.653Z,97221.92
2019-02-28T13:36:39.695Z,97218.16
2019-02-28T13:39:11.856Z,97223.69
2019-02-28T13:41:43.289Z,97219.25
2019-02-28T13:44:14.371Z,97218.83
2019-02-28T13:46:45.702Z,97196.98
2019-02-28T13:49:17.817Z,97208.05
2019-02-28T13:51:49.819Z,97217.41
2019-02-28T13:54:21.876Z,97218.72
2019-02-28T13:56:53.291Z,97203.92
2019-02-28T13:59:24.592Z,97197.30
2019-02-28T14:01:55.611Z,97189.67
2019-02-28T14:04:27.529Z,97188.58
2019-02-28T14:06:59.029Z,97186.09
2019-02-28T14:09:31.160Z,97177.52
2019-02-28T14:12:01.958Z,97169.15
2019-02-28T14:14:33.028Z,97156.92
2019-02-28T14:17:04.036Z,97163.81
2019-02-28T14:19:35.365Z,97150.30
2019-02-28T14:22:08.576Z,97151.23
2019-02-28T14:24:40.313Z,97153.15
2019-02-28T14:27:11.977Z,97150.78
2019-02-28T14:29:48.389Z,97138.94
2019-02-28T14:32:42.474Z,97152.28
2019-02-28T14:35:15.412Z,97144.69
2019-02-28T14:37:47.050Z,97142.37
2019-02-28T14:40:18.819Z,97138.72
2019-02-28T14:42:50.143Z,97137.42
2019-02-28T14:45:23.055Z,97132.20
2019-02-28T14:47:57.266Z,97140.69
2019-02-28T14:50:27.951Z,97131.38
2019-02-28T14:52:58.739Z,97132.14
2019-02-28T14:55:32.729Z,97127.30
2019-02-28T14:58:03.754Z,97126.55
2019-02-28T15:00:35.443Z,97128.80
2019-02-28T15:03:06.441Z,97121.00
2019-02-28T15:05:39.363Z,97116.07
2019-02-28T15:08:15.153Z,97112.67
2019-02-28T15:10:45.718Z,97121.64
2019-02-28T15:13:17.823Z,97112.95
2019-02-28T15:15:55.835Z,97108.89
2019-02-28T15:18:27.169Z,97104.70
2019-02-28T15:20:59.254Z,97112.42
2019-02-28T15:23:34.142Z,97108.09
2019-02-28T15:26:12.782Z,97104.95
2019-02-28T15:28:48.589Z,97103.84
2019-02-28T15:31:21.439Z,97102.75
2019-02-28T15:34:07.282Z,97086.20
2019-02-28T15:36:40.476Z,97100.06
2019-02-28T15:39:12.551Z,97106.44
2019-02-28T15:41:45.532Z,97097.48
2019-02-28T15:44:16.544Z,97092.25
2019-02-28T15:46:48.364Z,97092.70
2019-02-28T15:49:19.923Z,97096.13
2019-02-28T15:51:54.849Z,97101.30
2019-02-28T15:54:26.926Z,97097.56
2019-02-28T15:56:59.122Z,97098.14
2019-02-28T15:59:31.638Z,97088.93
2019-02-28T16:02:03.591Z,97096.22
2019-02-28T16:04:37.041Z,97085.33
2019-02-28T16:07:08.032Z,97095.93
2019-02-28T16:09:43.354Z,97089.61
2019-02-28T16:12:15.931Z,97088.64
2019-02-28T16:14:49.716Z,97092.54
2019-02-28T16:17:20.705Z,97092.04
2019-02-28T16:19:53.196Z,97092.80
2019-02-28T16:22:24.529Z,97098.25
2019-02-28T16:24:56.644Z,97090.34
2019-02-28T16:27:29.504Z,97091.78
2019-02-28T16:30:11.643Z,97087.30
2019-02-28T16:32:45.531Z,97084.90
2019-02-28T16:35:17.037Z,97094.43
2019-02-28T16:37:50.562Z,97099.45
2019-02-28T16:40:27.342Z,97107.05
2019-02-28T16:42:59.063Z,97112.59
2019-02-28T16:45:48.479Z,97112.76
2019-02-28T16:48:23.439Z,97100.23
2019-02-28T16:50:56.788Z,97106.88
2019-02-28T16:53:28.042Z,97112.02
2019-02-28T16:55:59.458Z,97119.29
2019-02-28T16:58:35.151Z,97122.81
2019-02-28T17:01:28.503Z,97125.98
2019-02-28T17:04:02.085Z,97123.98
2019-02-28T17:06:35.618Z,97108.94
2019-02-28T17:09:23.098Z,97124.05
2019-02-28T17:12:10.649Z,97126.81
2019-02-28T17:15:13.908Z,97130.99
2019-02-28T17:17:56.642Z,97133.90
2019-02-28T17:20:27.031Z,97135.74
2019-02-28T17:22:58.588Z,97138.64
2019-02-28T17:25:31.104Z,97130.34
2019-02-28T17:28:29.972Z,97142.09
2019-02-28T17:31:35.728Z,97143.78
2019-02-28T17:34:07.751Z,97142.90
2019-02-28T17:36:38.831Z,97155.66
2019-02-28T17:39:14.805Z,97145.88
2019-02-28T17:41:44.899Z,97152.88
2019-02-28T17:44:57.124Z,97151.84
2019-02-28T17:48:26.177Z,97158.37
2019-02-28T17:51:33.691Z,97156.08
2019-02-28T17:54:54.329Z,97164.13
2019-02-28T17:58:19.349Z,97169.88
2019-02-28T18:01:35.161Z,97178.75
2019-02-28T18:05:18.661Z,97174.61
2019-02-28T18:08:55.432Z,97181.47
2019-02-28T18:12:01.334Z,97188.06
2019-02-28T18:15:31.118Z,97189.92
2019-02-28T18:19:18.270Z,97191.88
2019-02-28T18:22:26.441Z,97198.26
2019-02-28T18:25:32.624Z,97195.05
2019-02-28T18:29:09.893Z,97204.48
2019-02-28T18:31:42.014Z,97205.14
2019-02-28T18:34:26.234Z,97198.59
2019-02-28T18:36:58.103Z,97203.97
2019-02-28T18:39:29.657Z,97204.95
2019-02-28T18:42:00.778Z,97203.67
2019-02-28T18:44:31.893Z,97196.37
2019-02-28T18:47:04.396Z,97197.91
2019-02-28T18:49:36.153Z,97191.77
2019-02-28T18:52:07.043Z,97188.98
2019-02-28T18:54:39.438Z,97188.37
2019-02-28T18:57:12.154Z,97191.58
2019-02-28T18:59:43.638Z,97194.04
2019-02-28T19:02:14.676Z,97193.92
2019-02-28T19:04:46.083Z,97203.56
2019-02-28T19:07:18.402Z,97199.89
2019-02-28T19:09:50.111Z,97201.79
2019-02-28T19:12:21.977Z,97203.52
2019-02-28T19:14:53.485Z,97206.02
2019-02-28T19:17:24.610Z,97215.91
2019-02-28T19:19:55.640Z,97218.70
2019-02-28T19:22:27.015Z,97215.86
2019-02-28T19:24:58.408Z,97215.41
2019-02-28T19:27:29.815Z,97213.49
2019-02-28T19:30:01.357Z,97212.66
2019-02-28T19:32:33.857Z,97202.84
2019-02-28T19:35:05.717Z,97206.25
2019-02-28T19:37:37.772Z,97211.36
2019-02-28T19:40:09.938Z,97221.70
2019-02-28T19:42:41.703Z,97220.14
2019-02-28T19:45:14.323Z,97215.66
2019-02-28T19:47:47.419Z,97223.39
2019-02-28T19:50:18.541Z,97229.16
2019-02-28T19:52:49.273Z,97232.25
2019-02-28T19:55:20.634Z,97237.13
2019-02-28T19:57:52.023Z,97238.06
2019-02-28T20:00:22.833Z,97232.27
2019-02-28T20:02:54.515Z,97238.88
2019-02-28T20:05:26.015Z,97257.91
2019-02-28T20:07:57.106Z,97259.80
2019-02-28T20:10:28.128Z,97260.69
2019-02-28T20:12:58.835Z,97262.20
2019-02-28T20:15:32.141Z,97273.99
2019-02-28T20:18:03.932Z,97246.25
2019-02-28T20:20:35.245Z,97281.70
2019-02-28T20:23:06.880Z,97289.39
2019-02-28T20:25:37.837Z,97285.30
2019-02-28T20:28:08.776Z,97297.78
2019-02-28T20:30:40.609Z,97305.86
2019-02-28T20:33:11.935Z,97304.31
2019-02-28T20:35:43.907Z,97312.00
2019-02-28T20:39:01.450Z,97311.23
2019-02-28T20:41:32.145Z,97327.98
2019-02-28T20:44:03.791Z,97337.30
2019-02-28T20:46:35.033Z,97337.28
2019-02-28T20:49:06.784Z,97336.03
2019-02-28T20:51:37.796Z,97322.66
2019-02-28T20:54:09.844Z,97331.45
2019-02-28T20:56:40.970Z,97332.82
2019-02-28T20:59:13.156Z,97334.23
2019-02-28T21:01:44.523Z,97338.59
2019-02-28T21:04:16.242Z,97342.64
2019-02-28T21:06:46.966Z,97344.23
2019-02-28T21:09:20.451Z,97342.05
2019-02-28T21:11:51.855Z,97338.11
2019-02-28T21:14:23.808Z,97333.09
2019-02-28T21:16:55.147Z,97335.53
2019-02-28T21:19:26.209Z,97336.53
2019-02-28T21:21:57.845Z,97331.55
2019-02-28T21:24:29.196Z,97339.96
2019-02-28T21:27:59.074Z,97337.08
2019-02-28T21:30:30.369Z,97330.66
2019-02-28T21:33:01.401Z,97337.59
2019-02-28T21:35:32.852Z,97337.39
2019-02-28T21:38:04.338Z,97333.16
2019-02-28T21:40:35.680Z,97332.20
2019-02-28T21:43:06.709Z,97332.48
2019-02-28T21:45:37.773Z,97332.49
2019-02-28T21:48:09.090Z,97323.02
2019-02-28T21:50:47.502Z,97326.05
2019-02-28T21:53:18.568Z,97315.41
2019-02-28T21:55:49.618Z,97315.48
2019-02-28T21:58:22.154Z,97321.87
2019-02-28T22:00:53.114Z,97317.45
2019-02-28T22:03:43.813Z,97312.53
2019-02-28T22:06:16.300Z,97319.30
2019-02-28T22:08:47.931Z,97310.22
2019-02-28T22:11:19.432Z,97304.38
2019-02-28T22:13:50.406Z,97307.11
2019-02-28T22:16:21.467Z,97311.93
2019-02-28T22:18:52.481Z,97312.00
2019-02-28T22:21:23.911Z,97302.89
2019-02-28T22:23:55.848Z,97307.56
2019-02-28T22:26:31.744Z,97296.08
2019-02-28T22:29:03.502Z,97307.16
2019-02-28T22:31:52.631Z,97302.81
2019-02-28T22:34:53.083Z,97297.42
2019-02-28T22:37:25.567Z,97299.46
2019-02-28T22:40:09.657Z,97307.64
2019-02-28T22:42:42.233Z,97302.20
2019-02-28T22:45:12.738Z,97302.28
2019-02-28T22:47:44.111Z,97310.72
2019-02-28T22:50:15.935Z,97313.81
2019-02-28T22:52:47.319Z,97310.25
2019-02-28T22:55:23.575Z,97301.72
2019-02-28T22:57:54.694Z,97301.94
2019-02-28T23:01:04.326Z,97293.25
2019-02-28T23:03:48.953Z,97283.70
2019-02-28T23:06:22.315Z,97271.06
2019-02-28T23:08:53.650Z,97267.47
2019-02-28T23:11:24.362Z,97265.45
2019-02-28T23:13:56.045Z,97272.45
2019-02-28T23:16:28.159Z,97267.31
2019-02-28T23:19:01.200Z,97263.39
2019-02-28T23:21:32.738Z,97276.97
2019-02-28T23:24:04.332Z,97274.44
2019-02-28T23:27:15.003Z,97266.20
2019-02-28T23:29:55.472Z,97265.05
2019-02-28T23:32:57.942Z,97265.05
2019-02-28T23:35:37.097Z,97257.68
2019-02-28T23:38:13.613Z,97261.16
2019-02-28T23:40:50.711Z,97261.02
2019-02-28T23:43:25.924Z,97257.13
2019-02-28T23:46:01.259Z,97253.42
2019-02-28T23:48:35.358Z,97255.69
2019-02-28T23:51:06.847Z,97252.38
2019-02-28T23:53:38.172Z,97245.02
2019-02-28T23:56:10.003Z,97237.62
2019-02-28T23:58:40.808Z,97226.10
